WetterOnline ( https://www.wetteronline.de )

Wetter aktuell Lübben

Aktuelles Wetter: Cottbus (70m)

6-stündlich | Neueste Meldungen
Ortszeit Temperatur Wetter
So, 25.07. 2:00 21.3° C bedeckt
Sa, 24.07. 20:00 27.7° C bedeckt
Sa, 24.07. 14:00 29.9° C leicht bewölkt
Sa, 24.07. 8:00 20.2° C wolkenlos
Sa, 24.07. 2:00 17.0° C leicht bewölkt
Fr, 23.07. 20:00 24.6° C wolkenlos
Fr, 23.07. 14:00 24.5° C bewölkt
Fr, 23.07. 8:00 17.2° C bedeckt
Ortszeit Temperatur Wetter
So, 25.07. 4:00 19.7° C bewölkt
So, 25.07. 3:50 19.7° C bewölkt
So, 25.07. 3:40 19.7° C bewölkt
So, 25.07. 3:30 19.8° C wolkig
So, 25.07. 3:20 19.8° C wolkig
So, 25.07. 3:10 19.8° C wolkig
So, 25.07. 3:00 20.2° C wolkig
So, 25.07. 2:30 20.5° C bedeckt
So, 25.07. 2:00 21.3° C bedeckt
So, 25.07. 1:30 21.7° C bedeckt
So, 25.07. 1:00 22.1° C bedeckt
Ortszeit Relative Feuchte Sichtweite
So, 25.07. 2:00 58% 29 km
Sa, 24.07. 20:00 40% 30 km
Sa, 24.07. 14:00 38% 40 km
Sa, 24.07. 8:00 67% 24 km
Sa, 24.07. 2:00 83% 24 km
Fr, 23.07. 20:00 47% 30 km
Fr, 23.07. 14:00 48% 30 km
Fr, 23.07. 8:00 89% 19 km
Ortszeit Relative Feuchte Sichtweite
So, 25.07. 4:00 64% 24 km
So, 25.07. 3:50 64% -
So, 25.07. 3:40 63% -
So, 25.07. 3:30 63% 21 km
So, 25.07. 3:20 63% -
So, 25.07. 3:10 63% -
So, 25.07. 3:00 61% 24 km
So, 25.07. 2:30 61% 27 km
So, 25.07. 2:00 58% 29 km
So, 25.07. 1:30 56% 25 km
So, 25.07. 1:00 55% 29 km
Ortszeit Niederschlagsmenge Niederschlagsart
So, 25.07. 2:00 0.0 l/m2 in 6 Std. -
Sa, 24.07. 20:00 0.0 l/m2 in 12 Std. -
Sa, 24.07. 14:00 0.0 l/m2 in 6 Std. -
Sa, 24.07. 8:00 0.0 l/m2 in 12 Std. -
Sa, 24.07. 2:00 0.0 l/m2 in 6 Std. -
Fr, 23.07. 20:00 0.0 l/m2 in 12 Std. -
Fr, 23.07. 14:00 0.0 l/m2 in 6 Std. -
Fr, 23.07. 8:00 0.0 l/m2 in 12 Std. -
Ortszeit Niederschlagsmenge Niederschlagsart
So, 25.07. 4:00 0.0 l/m2 in 1 Std. -
So, 25.07. 3:50 keine Meldung -
So, 25.07. 3:40 keine Meldung -
So, 25.07. 3:30 0.0 l/m2 in 1 Std. -
So, 25.07. 3:20 keine Meldung -
So, 25.07. 3:10 keine Meldung -
So, 25.07. 3:00 0.0 l/m2 in 1 Std. -
So, 25.07. 2:30 0.0 l/m2 in 1 Std. -
So, 25.07. 2:00 0.0 l/m2 in 1 Std. -
So, 25.07. 1:30 0.0 l/m2 in 1 Std. -
So, 25.07. 1:00 0.0 l/m2 in 1 Std. -
Ortszeit Stärke Spitze Richtung
km/h Bft. km/h Grad Sektor
So, 25.07. 2:00 7 2 24 80° O
Sa, 24.07. 20:00 11 2 25 120° SO
Sa, 24.07. 14:00 9 2 26 170° S
Sa, 24.07. 8:00 7 2 18 100° O
Sa, 24.07. 2:00 6 1 13 70° O
Fr, 23.07. 20:00 7 2 22 60° NO
Fr, 23.07. 14:00 4 1 14 210° SW
Fr, 23.07. 8:00 0 0 11 - -
Ortszeit Stärke Spitze Richtung
km/h Bft. km/h Grad Sektor
So, 25.07. 4:00 9 2 15 70° O
So, 25.07. 3:50 9 2 - 70° O
So, 25.07. 3:40 9 2 - 70° O
So, 25.07. 3:30 9 2 15 80° O
So, 25.07. 3:20 9 2 - 80° O
So, 25.07. 3:10 7 2 - 70° O
So, 25.07. 3:00 7 2 17 70° O
So, 25.07. 2:30 7 2 14 70° O
So, 25.07. 2:00 7 2 17 80° O
So, 25.07. 1:30 9 2 15 80° O
So, 25.07. 1:00 7 2 17 100° O
Ortszeit Untergrenze Bedeckung Gattung
total tief tief mittel hoch
So, 25.07. 2:00 4200 m 8/8 8/8 - - -
Sa, 24.07. 20:00 6000 m 8/8 8/8 - - -
Sa, 24.07. 14:00 1800 m 3/8 3/8 - - -
Sa, 24.07. 8:00 - 0/8 0/8 - - -
Sa, 24.07. 2:00 2400 m 4/8 4/8 - - -
Fr, 23.07. 20:00 - 0/8 0/8 - - -
Fr, 23.07. 14:00 2100 m 7/8 7/8 - - -
Fr, 23.07. 8:00 2100 m 8/8 8/8 - - -
Ortszeit Bedeckungsgrad in Achtel und Wolkenuntergrenze
So, 25.07. 4:00 7(4500m) 7(5100m) 8(8100m)
So, 25.07. 3:50 7(4500m) 7(5100m) 8(8100m)
So, 25.07. 3:40 3(4500m) 6(5400m) 8(8100m)
So, 25.07. 3:30 6(8100m) 8(9000m) 8(8700m)
So, 25.07. 3:20 6(8100m) 8(9000m)
So, 25.07. 3:10 4(8400m) 6(9000m) 7(9000m)
So, 25.07. 3:00 4(4500m) 6(9000m) 6(10500m)
So, 25.07. 2:30 7(4500m) 8(5100m) 8(10500m)
So, 25.07. 2:00 8(4200m)
So, 25.07. 1:30 8(4200m) 8(4800m)
So, 25.07. 1:00 7(3900m) 8(4500m) 8(5100m)
Ortszeit Luftdruck NN (hPa) Tendenz (hPa in 3 Std.)
So, 25.07. 2:00 1010 0,0
Sa, 24.07. 20:00 1010 - 1,1
Sa, 24.07. 14:00 1011 - 0,9
Sa, 24.07. 8:00 1014 - 0,1
Sa, 24.07. 2:00 1015 - 0,2
Fr, 23.07. 20:00 1014 - 0,8
Fr, 23.07. 14:00 1016 - 1,0
Fr, 23.07. 8:00 1018 - 0,5
Ortszeit Luftdruck NN (hPa) Tendenz (hPa in 3 Std.)
So, 25.07. 4:00 1009 - 1,6
So, 25.07. 3:50 1009 keine Meldung
So, 25.07. 3:40 1009 keine Meldung
So, 25.07. 3:30 1010 - 1,5
So, 25.07. 3:20 1010 keine Meldung
So, 25.07. 3:10 1010 keine Meldung
So, 25.07. 3:00 1010 - 1,2
So, 25.07. 2:30 1010 - 1,0
So, 25.07. 2:00 1010 0,0
So, 25.07. 1:30 1011 + 0,3
So, 25.07. 1:00 1011 + 0,2
Ortszeit Schneehöhe (cm)
So, 25.07. 2:00 -
Sa, 24.07. 20:00 -
Sa, 24.07. 14:00 -
Sa, 24.07. 8:00 -
Sa, 24.07. 2:00 -
Fr, 23.07. 20:00 -
Fr, 23.07. 14:00 -
Fr, 23.07. 8:00 -
Ortszeit Schneehöhe (cm)
So, 25.07. 4:00 -
So, 25.07. 3:50 -
So, 25.07. 3:40 -
So, 25.07. 3:30 -
So, 25.07. 3:20 -
So, 25.07. 3:10 -
So, 25.07. 3:00 -
So, 25.07. 2:30 -
So, 25.07. 2:00 -
So, 25.07. 1:30 -
So, 25.07. 1:00 -
Link zu dieser Seite / Seite empfehlen

Das Wetter in ...